sensor_id;sensor_type;location;lat;lon;timestamp;pressure;altitude;pressure_sealevel;temperature;humidity
4830;BME280;2429;52.586;14.322;2024-01-15T00:04:16;99248.25;;;0.47;100.00
4830;BME280;2429;52.586;14.322;2024-01-15T00:09:22;99227.47;;;0.51;100.00
4830;BME280;2429;52.586;14.322;2024-01-15T00:14:25;99219.63;;;0.55;100.00
4830;BME280;2429;52.586;14.322;2024-01-15T00:19:29;99206.09;;;0.49;100.00
4830;BME280;2429;52.586;14.322;2024-01-15T00:24:36;99198.41;;;0.48;100.00
4830;BME280;2429;52.586;14.322;2024-01-15T00:29:39;99188.09;;;0.48;100.00
4830;BME280;2429;52.586;14.322;2024-01-15T00:34:43;99183.59;;;0.53;100.00
4830;BME280;2429;52.586;14.322;2024-01-15T00:39:48;99170.06;;;0.48;100.00
4830;BME280;2429;52.586;14.322;2024-01-15T00:44:52;99162.97;;;0.53;100.00
4830;BME280;2429;52.586;14.322;2024-01-15T00:49:56;99166.44;;;0.52;100.00
4830;BME280;2429;52.586;14.322;2024-01-15T00:55:01;99150.97;;;0.52;100.00
4830;BME280;2429;52.586;14.322;2024-01-15T01:00:06;99145.88;;;0.50;100.00
4830;BME280;2429;52.586;14.322;2024-01-15T01:05:11;99146.31;;;0.40;100.00
4830;BME280;2429;52.586;14.322;2024-01-15T01:10:17;99138.88;;;0.32;100.00
4830;BME280;2429;52.586;14.322;2024-01-15T01:15:20;99135.66;;;0.25;100.00
4830;BME280;2429;52.586;14.322;2024-01-15T01:20:24;99124.72;;;0.20;100.00
4830;BME280;2429;52.586;14.322;2024-01-15T01:25:29;99126.41;;;0.21;100.00
4830;BME280;2429;52.586;14.322;2024-01-15T01:30:32;99122.84;;;0.24;100.00
4830;BME280;2429;52.586;14.322;2024-01-15T01:35:36;99118.44;;;0.27;100.00
4830;BME280;2429;52.586;14.322;2024-01-15T01:40:41;99117.28;;;0.12;100.00
4830;BME280;2429;52.586;14.322;2024-01-15T01:45:44;99098.06;;;-0.03;100.00
4830;BME280;2429;52.586;14.322;2024-01-15T01:50:48;99103.13;;;0.01;100.00
4830;BME280;2429;52.586;14.322;2024-01-15T01:55:54;99100.75;;;-0.06;100.00
4830;BME280;2429;52.586;14.322;2024-01-15T02:00:59;99105.69;;;0.01;100.00
4830;BME280;2429;52.586;14.322;2024-01-15T02:06:03;99106.56;;;-0.01;100.00
4830;BME280;2429;52.586;14.322;2024-01-15T02:11:08;99099.91;;;-0.06;100.00
4830;BME280;2429;52.586;14.322;2024-01-15T02:16:12;99110.25;;;-0.08;100.00
4830;BME280;2429;52.586;14.322;2024-01-15T02:21:16;99109.44;;;-0.08;100.00
4830;BME280;2429;52.586;14.322;2024-01-15T02:26:21;99111.59;;;0.03;100.00
4830;BME280;2429;52.586;14.322;2024-01-15T02:31:25;99108.19;;;0.02;100.00
4830;BME280;2429;52.586;14.322;2024-01-15T02:36:28;99114.97;;;0.05;100.00
4830;BME280;2429;52.586;14.322;2024-01-15T02:41:33;99114.00;;;0.07;100.00
4830;BME280;2429;52.586;14.322;2024-01-15T02:46:37;99118.56;;;0.01;100.00
4830;BME280;2429;52.586;14.322;2024-01-15T02:51:40;99116.81;;;0.01;100.00
4830;BME280;2429;52.586;14.322;2024-01-15T02:56:45;99115.16;;;0.00;100.00
4830;BME280;2429;52.586;14.322;2024-01-15T03:01:49;99100.66;;;-0.03;100.00
4830;BME280;2429;52.586;14.322;2024-01-15T03:06:52;99093.16;;;-0.09;100.00
4830;BME280;2429;52.586;14.322;2024-01-15T03:11:57;99080.41;;;-0.12;100.00
4830;BME280;2429;52.586;14.322;2024-01-15T03:17:01;99071.75;;;-0.11;100.00
4830;BME280;2429;52.586;14.322;2024-01-15T03:22:04;99071.81;;;-0.12;100.00
4830;BME280;2429;52.586;14.322;2024-01-15T03:27:11;99072.63;;;-0.10;100.00
4830;BME280;2429;52.586;14.322;2024-01-15T03:32:17;99072.69;;;-0.12;100.00
4830;BME280;2429;52.586;14.322;2024-01-15T03:37:21;99071.63;;;-0.08;100.00
4830;BME280;2429;52.586;14.322;2024-01-15T03:42:26;99060.41;;;-0.05;100.00
4830;BME280;2429;52.586;14.322;2024-01-15T03:47:30;99048.22;;;-0.02;100.00
4830;BME280;2429;52.586;14.322;2024-01-15T03:52:34;99051.56;;;0.02;100.00
4830;BME280;2429;52.586;14.322;2024-01-15T03:57:38;99037.84;;;0.02;100.00
4830;BME280;2429;52.586;14.322;2024-01-15T04:02:42;99031.00;;;0.01;100.00
4830;BME280;2429;52.586;14.322;2024-01-15T04:07:46;99019.03;;;-0.01;100.00
4830;BME280;2429;52.586;14.322;2024-01-15T04:12:51;99020.72;;;0.01;100.00
4830;BME280;2429;52.586;14.322;2024-01-15T04:17:54;99014.72;;;0.00;100.00
4830;BME280;2429;52.586;14.322;2024-01-15T04:22:58;99007.03;;;-0.02;100.00
4830;BME280;2429;52.586;14.322;2024-01-15T04:28:03;99011.25;;;0.01;100.00
4830;BME280;2429;52.586;14.322;2024-01-15T04:33:07;99015.31;;;0.07;100.00
4830;BME280;2429;52.586;14.322;2024-01-15T04:38:11;99002.38;;;0.08;100.00
4830;BME280;2429;52.586;14.322;2024-01-15T04:43:16;99003.28;;;0.07;100.00
4830;BME280;2429;52.586;14.322;2024-01-15T04:48:19;98991.38;;;0.05;100.00
4830;BME280;2429;52.586;14.322;2024-01-15T04:53:25;98979.91;;;0.12;100.00
4830;BME280;2429;52.586;14.322;2024-01-15T04:58:30;98986.75;;;0.13;100.00
4830;BME280;2429;52.586;14.322;2024-01-15T05:03:33;98983.28;;;0.14;100.00
4830;BME280;2429;52.586;14.322;2024-01-15T05:08:37;98988.38;;;0.15;100.00
4830;BME280;2429;52.586;14.322;2024-01-15T05:13:42;99000.44;;;0.13;100.00
4830;BME280;2429;52.586;14.322;2024-01-15T05:18:45;98988.44;;;0.14;100.00
4830;BME280;2429;52.586;14.322;2024-01-15T05:23:49;98987.41;;;0.18;100.00
4830;BME280;2429;52.586;14.322;2024-01-15T05:28:54;98963.38;;;0.17;100.00
4830;BME280;2429;52.586;14.322;2024-01-15T05:33:58;98962.56;;;0.17;100.00
4830;BME280;2429;52.586;14.322;2024-01-15T05:39:02;98957.97;;;0.24;100.00
4830;BME280;2429;52.586;14.322;2024-01-15T05:44:07;98957.63;;;0.33;100.00
4830;BME280;2429;52.586;14.322;2024-01-15T05:49:12;98962.72;;;0.34;100.00
4830;BME280;2429;52.586;14.322;2024-01-15T05:54:18;98972.03;;;0.37;100.00
4830;BME280;2429;52.586;14.322;2024-01-15T05:59:23;98954.88;;;0.38;100.00
4830;BME280;2429;52.586;14.322;2024-01-15T06:04:27;98951.50;;;0.35;100.00
4830;BME280;2429;52.586;14.322;2024-01-15T06:09:31;98942.47;;;0.25;100.00
4830;BME280;2429;52.586;14.322;2024-01-15T06:14:36;98945.66;;;0.10;100.00
4830;BME280;2429;52.586;14.322;2024-01-15T06:19:39;98941.28;;;0.12;100.00
4830;BME280;2429;52.586;14.322;2024-01-15T06:24:43;98925.69;;;0.15;100.00
4830;BME280;2429;52.586;14.322;2024-01-15T06:29:48;98935.97;;;0.16;100.00
4830;BME280;2429;52.586;14.322;2024-01-15T06:34:52;98929.72;;;0.22;100.00
4830;BME280;2429;52.586;14.322;2024-01-15T06:39:56;98938.41;;;0.20;100.00
4830;BME280;2429;52.586;14.322;2024-01-15T06:45:01;98940.88;;;0.23;100.00
4830;BME280;2429;52.586;14.322;2024-01-15T06:50:05;98944.28;;;0.23;100.00
4830;BME280;2429;52.586;14.322;2024-01-15T06:55:09;98944.22;;;0.25;100.00
4830;BME280;2429;52.586;14.322;2024-01-15T07:00:16;98929.66;;;0.24;100.00
4830;BME280;2429;52.586;14.322;2024-01-15T07:05:21;98940.44;;;0.33;100.00
4830;BME280;2429;52.586;14.322;2024-01-15T07:10:25;98933.47;;;0.35;100.00
4830;BME280;2429;52.586;14.322;2024-01-15T07:15:30;98933.66;;;0.31;100.00
4830;BME280;2429;52.586;14.322;2024-01-15T07:20:34;98931.94;;;0.31;100.00
4830;BME280;2429;52.586;14.322;2024-01-15T07:25:37;98951.78;;;0.50;100.00
4830;BME280;2429;52.586;14.322;2024-01-15T07:30:42;98959.63;;;0.47;100.00
4830;BME280;2429;52.586;14.322;2024-01-15T07:35:47;98958.22;;;0.40;100.00
4830;BME280;2429;52.586;14.322;2024-01-15T07:40:51;98977.00;;;0.42;100.00
4830;BME280;2429;52.586;14.322;2024-01-15T07:45:57;98995.78;;;0.45;100.00
4830;BME280;2429;52.586;14.322;2024-01-15T07:51:01;99011.13;;;0.26;100.00
4830;BME280;2429;52.586;14.322;2024-01-15T07:56:06;99001.25;;;0.15;100.00
4830;BME280;2429;52.586;14.322;2024-01-15T08:01:11;98997.72;;;0.18;100.00
4830;BME280;2429;52.586;14.322;2024-01-15T08:06:15;98983.69;;;0.25;100.00
4830;BME280;2429;52.586;14.322;2024-01-15T08:11:18;98983.63;;;0.27;100.00
4830;BME280;2429;52.586;14.322;2024-01-15T08:16:23;98997.81;;;0.37;100.00
4830;BME280;2429;52.586;14.322;2024-01-15T08:21:27;99000.38;;;0.37;100.00
4830;BME280;2429;52.586;14.322;2024-01-15T08:26:32;98998.34;;;0.45;100.00
4830;BME280;2429;52.586;14.322;2024-01-15T08:31:37;98998.59;;;0.39;100.00
4830;BME280;2429;52.586;14.322;2024-01-15T08:36:41;98982.63;;;0.51;100.00
4830;BME280;2429;52.586;14.322;2024-01-15T08:41:45;98990.31;;;0.53;100.00
4830;BME280;2429;52.586;14.322;2024-01-15T08:46:51;99001.34;;;0.77;100.00
4830;BME280;2429;52.586;14.322;2024-01-15T08:51:54;99006.75;;;0.92;100.00
4830;BME280;2429;52.586;14.322;2024-01-15T08:56:58;99016.63;;;1.02;100.00
4830;BME280;2429;52.586;14.322;2024-01-15T09:02:03;99026.38;;;0.96;100.00
4830;BME280;2429;52.586;14.322;2024-01-15T09:07:07;99020.34;;;0.95;100.00
4830;BME280;2429;52.586;14.322;2024-01-15T09:12:10;99027.19;;;0.96;100.00
4830;BME280;2429;52.586;14.322;2024-01-15T09:17:19;99022.59;;;1.03;100.00
4830;BME280;2429;52.586;14.322;2024-01-15T09:22:23;99030.28;;;1.25;100.00
4830;BME280;2429;52.586;14.322;2024-01-15T09:27:27;99036.06;;;1.51;100.00
4830;BME280;2429;52.586;14.322;2024-01-15T09:32:32;99040.88;;;1.58;100.00
4830;BME280;2429;52.586;14.322;2024-01-15T09:37:36;99040.41;;;1.69;100.00
4830;BME280;2429;52.586;14.322;2024-01-15T09:42:50;99033.84;;;1.81;100.00
4830;BME280;2429;52.586;14.322;2024-01-15T09:47:55;99050.50;;;1.55;100.00
4830;BME280;2429;52.586;14.322;2024-01-15T09:52:59;99031.47;;;1.37;100.00
4830;BME280;2429;52.586;14.322;2024-01-15T09:58:03;99046.22;;;1.35;100.00
4830;BME280;2429;52.586;14.322;2024-01-15T10:03:08;99051.72;;;1.27;100.00
4830;BME280;2429;52.586;14.322;2024-01-15T10:08:14;99056.72;;;1.30;100.00
4830;BME280;2429;52.586;14.322;2024-01-15T10:13:17;99040.75;;;1.62;100.00
4830;BME280;2429;52.586;14.322;2024-01-15T10:18:23;99044.94;;;1.83;100.00
4830;BME280;2429;52.586;14.322;2024-01-15T10:23:27;99028.03;;;1.76;100.00
4830;BME280;2429;52.586;14.322;2024-01-15T10:28:30;99022.47;;;1.66;100.00
4830;BME280;2429;52.586;14.322;2024-01-15T10:33:35;99008.72;;;1.47;100.00
4830;BME280;2429;52.586;14.322;2024-01-15T10:38:41;99015.59;;;1.46;100.00
4830;BME280;2429;52.586;14.322;2024-01-15T10:43:44;99029.28;;;1.48;100.00
4830;BME280;2429;52.586;14.322;2024-01-15T10:48:49;99018.34;;;1.81;100.00
4830;BME280;2429;52.586;14.322;2024-01-15T10:53:53;99008.19;;;1.96;100.00
4830;BME280;2429;52.586;14.322;2024-01-15T10:58:58;99026.38;;;1.75;100.00
4830;BME280;2429;52.586;14.322;2024-01-15T11:04:03;99008.44;;;1.72;100.00
4830;BME280;2429;52.586;14.322;2024-01-15T11:09:07;99022.75;;;1.60;100.00
4830;BME280;2429;52.586;14.322;2024-01-15T11:14:34;98993.72;;;1.74;100.00
4830;BME280;2429;52.586;14.322;2024-01-15T11:19:43;99020.28;;;1.95;100.00
4830;BME280;2429;52.586;14.322;2024-01-15T11:24:47;99033.91;;;1.99;100.00
4830;BME280;2429;52.586;14.322;2024-01-15T11:30:03;99030.41;;;1.81;100.00
4830;BME280;2429;52.586;14.322;2024-01-15T11:35:10;99038.38;;;1.95;100.00
4830;BME280;2429;52.586;14.322;2024-01-15T11:40:17;99029.28;;;2.24;100.00
4830;BME280;2429;52.586;14.322;2024-01-15T11:45:21;99024.16;;;2.59;100.00
4830;BME280;2429;52.586;14.322;2024-01-15T11:50:29;99023.47;;;2.56;100.00
4830;BME280;2429;52.586;14.322;2024-01-15T11:55:34;99023.78;;;2.50;100.00
4830;BME280;2429;52.586;14.322;2024-01-15T12:00:43;99023.47;;;2.56;100.00
4830;BME280;2429;52.586;14.322;2024-01-15T12:05:49;99014.25;;;2.50;100.00
4830;BME280;2429;52.586;14.322;2024-01-15T12:10:53;99035.50;;;2.57;100.00
4830;BME280;2429;52.586;14.322;2024-01-15T12:15:57;99040.13;;;2.50;100.00
4830;BME280;2429;52.586;14.322;2024-01-15T12:21:04;99027.81;;;2.19;100.00
4830;BME280;2429;52.586;14.322;2024-01-15T12:26:09;99036.91;;;2.08;100.00
4830;BME280;2429;52.586;14.322;2024-01-15T12:31:13;99047.09;;;2.11;100.00
4830;BME280;2429;52.586;14.322;2024-01-15T12:36:22;99033.94;;;2.16;100.00
4830;BME280;2429;52.586;14.322;2024-01-15T12:41:25;99046.13;;;1.95;100.00
4830;BME280;2429;52.586;14.322;2024-01-15T12:46:29;99065.25;;;1.91;100.00
4830;BME280;2429;52.586;14.322;2024-01-15T12:51:35;99076.41;;;2.10;100.00
4830;BME280;2429;52.586;14.322;2024-01-15T12:56:39;99065.44;;;1.86;100.00
4830;BME280;2429;52.586;14.322;2024-01-15T13:01:43;99068.59;;;1.74;100.00
4830;BME280;2429;52.586;14.322;2024-01-15T13:06:49;99080.03;;;1.68;100.00
4830;BME280;2429;52.586;14.322;2024-01-15T13:11:52;99077.78;;;1.61;100.00
4830;BME280;2429;52.586;14.322;2024-01-15T13:16:56;99090.63;;;1.62;100.00
4830;BME280;2429;52.586;14.322;2024-01-15T13:22:04;99089.50;;;1.88;100.00
4830;BME280;2429;52.586;14.322;2024-01-15T13:27:09;99116.31;;;2.05;100.00
4830;BME280;2429;52.586;14.322;2024-01-15T13:32:17;99113.06;;;2.00;100.00
4830;BME280;2429;52.586;14.322;2024-01-15T13:37:27;99103.03;;;2.13;100.00
4830;BME280;2429;52.586;14.322;2024-01-15T13:42:30;99126.97;;;2.16;100.00
4830;BME280;2429;52.586;14.322;2024-01-15T13:47:34;99125.78;;;2.04;100.00
4830;BME280;2429;52.586;14.322;2024-01-15T13:52:39;99135.28;;;1.64;100.00
4830;BME280;2429;52.586;14.322;2024-01-15T13:57:43;99137.09;;;1.62;100.00
4830;BME280;2429;52.586;14.322;2024-01-15T14:02:46;99151.44;;;1.49;100.00
4830;BME280;2429;52.586;14.322;2024-01-15T14:07:51;99145.03;;;1.57;100.00
4830;BME280;2429;52.586;14.322;2024-01-15T14:12:55;99152.84;;;1.56;100.00
4830;BME280;2429;52.586;14.322;2024-01-15T14:17:59;99164.22;;;1.52;100.00
4830;BME280;2429;52.586;14.322;2024-01-15T14:23:05;99189.00;;;1.56;100.00
4830;BME280;2429;52.586;14.322;2024-01-15T14:28:09;99193.47;;;1.52;100.00
4830;BME280;2429;52.586;14.322;2024-01-15T14:33:12;99209.63;;;1.35;100.00
4830;BME280;2429;52.586;14.322;2024-01-15T14:38:18;99218.06;;;1.18;100.00
4830;BME280;2429;52.586;14.322;2024-01-15T14:43:21;99221.53;;;0.95;100.00
4830;BME280;2429;52.586;14.322;2024-01-15T14:48:25;99233.91;;;0.63;100.00
4830;BME280;2429;52.586;14.322;2024-01-15T14:53:30;99247.69;;;0.62;100.00
4830;BME280;2429;52.586;14.322;2024-01-15T14:58:33;99254.88;;;0.54;100.00
4830;BME280;2429;52.586;14.322;2024-01-15T15:03:37;99263.59;;;0.50;100.00
4830;BME280;2429;52.586;14.322;2024-01-15T15:08:42;99279.97;;;0.49;100.00
4830;BME280;2429;52.586;14.322;2024-01-15T15:13:45;99290.50;;;0.43;100.00
4830;BME280;2429;52.586;14.322;2024-01-15T15:18:49;99292.06;;;0.47;100.00
4830;BME280;2429;52.586;14.322;2024-01-15T15:23:54;99309.34;;;0.43;100.00
4830;BME280;2429;52.586;14.322;2024-01-15T15:28:58;99313.03;;;0.38;100.00
4830;BME280;2429;52.586;14.322;2024-01-15T15:34:02;99327.13;;;0.27;100.00
4830;BME280;2429;52.586;14.322;2024-01-15T21:19:32;99833.97;;;-0.50;100.00
4830;BME280;2429;52.586;14.322;2024-01-15T21:24:37;99845.97;;;-0.49;100.00
4830;BME280;2429;52.586;14.322;2024-01-15T21:29:41;99849.50;;;-0.53;100.00
4830;BME280;2429;52.586;14.322;2024-01-15T21:34:46;99863.28;;;-0.56;100.00
4830;BME280;2429;52.586;14.322;2024-01-15T21:39:51;99857.34;;;-0.59;100.00
4830;BME280;2429;52.586;14.322;2024-01-15T21:44:54;99867.56;;;-0.56;100.00
4830;BME280;2429;52.586;14.322;2024-01-15T21:49:59;99867.75;;;-0.64;100.00
4830;BME280;2429;52.586;14.322;2024-01-15T21:55:04;99880.50;;;-0.59;100.00
4830;BME280;2429;52.586;14.322;2024-01-15T22:00:10;99889.91;;;-0.57;100.00
4830;BME280;2429;52.586;14.322;2024-01-15T22:05:17;99895.19;;;-0.64;100.00
4830;BME280;2429;52.586;14.322;2024-01-15T22:10:21;99912.25;;;-0.60;100.00
4830;BME280;2429;52.586;14.322;2024-01-15T22:15:25;99908.81;;;-0.59;100.00
4830;BME280;2429;52.586;14.322;2024-01-15T22:20:30;99912.28;;;-0.62;100.00
4830;BME280;2429;52.586;14.322;2024-01-15T22:25:34;99908.06;;;-0.64;100.00
4830;BME280;2429;52.586;14.322;2024-01-15T22:30:38;99908.81;;;-0.59;100.00
4830;BME280;2429;52.586;14.322;2024-01-15T22:35:43;99903.81;;;-0.65;100.00
4830;BME280;2429;52.586;14.322;2024-01-15T22:40:47;99912.38;;;-0.65;100.00
4830;BME280;2429;52.586;14.322;2024-01-15T22:45:50;99925.22;;;-0.65;100.00
4830;BME280;2429;52.586;14.322;2024-01-15T22:50:55;99931.25;;;-0.66;100.00
4830;BME280;2429;52.586;14.322;2024-01-15T22:56:01;99938.13;;;-0.66;100.00
4830;BME280;2429;52.586;14.322;2024-01-15T23:01:04;99944.25;;;-0.74;100.00
4830;BME280;2429;52.586;14.322;2024-01-15T23:06:17;99942.56;;;-0.73;100.00
4830;BME280;2429;52.586;14.322;2024-01-15T23:11:21;99940.00;;;-0.73;100.00
4830;BME280;2429;52.586;14.322;2024-01-15T23:16:25;99936.56;;;-0.74;100.00
4830;BME280;2429;52.586;14.322;2024-01-15T23:21:30;99940.06;;;-0.78;100.00
4830;BME280;2429;52.586;14.322;2024-01-15T23:26:34;99953.13;;;-0.89;100.00
4830;BME280;2429;52.586;14.322;2024-01-15T23:31:39;99951.41;;;-0.86;100.00
4830;BME280;2429;52.586;14.322;2024-01-15T23:36:44;99954.81;;;-0.86;100.00
4830;BME280;2429;52.586;14.322;2024-01-15T23:41:50;99954.88;;;-0.89;100.00
4830;BME280;2429;52.586;14.322;2024-01-15T23:46:54;99962.56;;;-0.87;100.00
4830;BME280;2429;52.586;14.322;2024-01-15T23:51:59;99969.56;;;-0.96;100.00
4830;BME280;2429;52.586;14.322;2024-01-15T23:57:03;99967.75;;;-0.91;100.00
